Time;durP1;ratioP1;P1;durP2;ratioP2;P2;SDS_P1;SDS_P2;PMS_P1;PMS_P2;Temp;Humidity;BMP_temperature;BMP_pressure;BME280_temperature;BME280_humidity;BME280_pressure;Samples;Min_cycle;Max_cycle;Signal;HPM_P1;HPM_P2
2021/08/22 09:01:45;;;;;;;4.82;1.13;;;14.80;72.40;;;;;;5344180;23;20504;-71
2021/08/22 09:04:16;;;;;;;3.75;1.30;;;14.90;72.30;;;;;;4871302;29;20029;-74
2021/08/22 09:06:55;;;;;;;2.47;1.08;;;14.90;72.40;;;;;;4870217;29;20033;-72
2021/08/22 09:09:58;;;;;;;3.65;1.77;;;15.00;72.40;;;;;;4881254;29;20029;-73
2021/08/22 09:13:02;;;;;;;1.63;1.05;;;15.10;72.20;;;;;;4869220;29;20026;-80
2021/08/22 09:15:44;;;;;;;4.28;0.73;;;15.10;72.00;;;;;;4876933;29;20160;-74
2021/08/22 09:18:50;;;;;;;8.52;1.13;;;15.20;71.90;;;;;;4882063;29;20100;-71
2021/08/22 09:21:53;;;;;;;5.78;1.38;;;15.30;72.50;;;;;;4850685;29;20033;-74
2021/08/22 09:24:32;;;;;;;7.18;1.10;;;15.30;72.50;;;;;;4878200;29;20029;-71
2021/08/22 09:27:17;;;;;;;6.82;1.70;;;15.40;72.60;;;;;;4877237;29;20033;-69
2021/08/22 09:30:21;;;;;;;4.67;0.97;;;15.50;72.20;;;;;;4873361;29;20046;-72
2021/08/22 09:33:24;;;;;;;53.10;34.80;;;15.50;72.10;;;;;;4877339;29;20040;-71
2021/08/22 09:36:12;;;;;;;11.10;6.85;;;15.60;72.00;;;;;;4877095;29;20113;-69
2021/08/22 09:39:17;;;;;;;6.40;3.10;;;15.60;71.80;;;;;;4873732;29;20028;-72
2021/08/22 09:42:02;;;;;;;6.88;2.55;;;15.70;72.10;;;;;;4876189;29;20081;-71
2021/08/22 09:44:48;;;;;;;5.75;2.58;;;15.80;72.00;;;;;;4873340;29;20085;-71
2021/08/22 09:47:17;;;;;;;3.33;1.60;;;15.80;71.60;;;;;;4876256;29;20565;-74
2021/08/22 09:50:22;;;;;;;4.45;2.10;;;15.90;71.90;;;;;;4878045;29;20144;-73
2021/08/22 09:53:07;;;;;;;3.20;1.60;;;15.90;71.70;;;;;;4872395;29;20035;-71
2021/08/22 09:55:58;;;;;;;3.42;1.60;;;16.00;71.70;;;;;;4874135;29;20305;-76
2021/08/22 09:58:30;;;;;;;3.38;1.30;;;16.10;71.60;;;;;;4868149;29;20022;-68
2021/08/22 10:01:15;;;;;;;4.13;2.33;;;16.20;71.60;;;;;;4878893;29;20033;-70
2021/08/22 10:04:13;;;;;;;2.97;1.58;;;16.20;71.00;;;;;;4855616;29;20030;-69
2021/08/22 10:07:22;;;;;;;3.22;1.15;;;16.30;70.60;;;;;;4851714;29;20064;-72
2021/08/22 10:10:17;;;;;;;7.13;1.20;;;16.40;70.70;;;;;;4854387;29;20371;-69
2021/08/22 10:12:44;;;;;;;5.72;1.65;;;16.40;70.70;;;;;;4855096;29;20177;-70
2021/08/22 10:15:11;;;;;;;3.30;1.20;;;16.50;70.40;;;;;;4859847;29;20018;-73
2021/08/22 10:17:37;;;;;;;14.18;9.30;;;16.60;70.40;;;;;;4858748;29;20025;-72
2021/08/22 10:20:04;;;;;;;8.23;4.38;;;16.60;70.00;;;;;;4861825;29;20024;-72
2021/08/22 10:22:31;;;;;;;7.03;3.60;;;16.70;69.70;;;;;;4857437;29;20078;-73
2021/08/22 10:25:04;;;;;;;8.13;4.47;;;16.80;69.80;;;;;;4853695;29;20066;-69
2021/08/22 10:27:34;;;;;;;7.38;3.58;;;16.80;69.40;;;;;;4859439;29;20041;-77
2021/08/22 10:30:03;;;;;;;3.42;1.80;;;16.90;69.10;;;;;;4845355;29;20067;-74
2021/08/22 10:32:34;;;;;;;10.07;2.33;;;16.90;69.00;;;;;;4856403;29;20037;-75
2021/08/22 10:35:15;;;;;;;4.53;1.50;;;17.00;68.90;;;;;;4853982;29;20537;-77
2021/08/22 10:37:46;;;;;;;2.53;1.60;;;17.00;68.70;;;;;;4844137;29;20037;-72
2021/08/22 10:40:24;;;;;;;2.35;1.20;;;17.10;68.60;;;;;;4850894;29;20059;-70
2021/08/22 10:43:07;;;;;;;4.55;1.30;;;17.20;68.60;;;;;;4853201;29;20394;-76
2021/08/22 10:45:53;;;;;;;5.32;2.28;;;17.20;68.50;;;;;;4859802;29;20112;-74
2021/08/22 10:48:22;;;;;;;2.63;1.17;;;17.30;68.50;;;;;;4858036;29;20396;-77
2021/08/22 10:50:58;;;;;;;4.97;1.70;;;17.30;68.20;;;;;;4858423;29;20033;-74
2021/08/22 10:53:37;;;;;;;2.45;1.40;;;17.40;68.20;;;;;;4851754;29;20040;-73
2021/08/22 10:56:22;;;;;;;4.55;1.38;;;17.40;68.10;;;;;;4854752;29;20063;-71
2021/08/22 10:59:07;;;;;;;2.83;1.45;;;17.40;68.00;;;;;;4857455;29;20025;-71
2021/08/22 11:01:39;;;;;;;5.85;2.45;;;17.40;67.90;;;;;;4857277;29;20064;-71
2021/08/22 11:04:07;;;;;;;3.17;1.90;;;17.50;67.90;;;;;;4874542;29;20025;-71
2021/08/22 11:06:38;;;;;;;3.50;2.33;;;17.50;67.60;;;;;;4875024;29;20491;-68
2021/08/22 11:09:05;;;;;;;4.22;1.50;;;17.60;67.40;;;;;;4875017;29;20033;-70
2021/08/22 11:11:31;;;;;;;4.75;2.10;;;17.60;67.40;;;;;;4873591;29;20362;-71
2021/08/22 11:14:00;;;;;;;3.92;1.98;;;17.60;67.80;;;;;;4872588;29;20040;-71
2021/08/22 11:16:46;;;;;;;2.65;1.15;;;17.60;67.00;;;;;;4871517;29;20496;-70
2021/08/22 11:19:13;;;;;;;10.25;4.45;;;17.70;66.90;;;;;;4872434;29;20040;-69
2021/08/22 11:21:40;;;;;;;4.88;2.70;;;17.70;66.70;;;;;;4875601;29;20025;-71
2021/08/22 11:24:07;;;;;;;7.90;3.33;;;17.70;66.80;;;;;;4873542;29;20085;-78
2021/08/22 11:26:34;;;;;;;6.50;2.80;;;17.80;66.80;;;;;;4874571;29;20021;-69
2021/08/22 11:29:01;;;;;;;4.55;3.17;;;17.80;66.70;;;;;;4876409;29;20028;-70
2021/08/22 11:31:30;;;;;;;8.77;2.28;;;17.90;66.60;;;;;;4873313;29;20029;-68
2021/08/22 11:33:57;;;;;;;3.03;1.48;;;17.90;66.20;;;;;;4872037;29;20017;-68
2021/08/22 11:36:30;;;;;;;3.35;1.60;;;17.90;66.10;;;;;;4876253;29;20484;-70
2021/08/22 11:39:19;;;;;;;3.60;1.60;;;18.00;66.00;;;;;;4873143;29;20492;-71
2021/08/22 11:41:48;;;;;;;2.35;1.15;;;18.00;65.90;;;;;;4868187;29;20061;-71
2021/08/22 11:44:26;;;;;;;4.95;1.30;;;18.10;65.70;;;;;;4874984;29;20465;-71
2021/08/22 11:46:53;;;;;;;18.20;14.00;;;18.10;65.60;;;;;;4872991;29;20038;-70
2021/08/22 11:49:21;;;;;;;4.43;3.10;;;18.10;65.40;;;;;;4875450;29;20115;-70
2021/08/22 11:51:52;;;;;;;9.02;2.17;;;18.10;64.80;;;;;;4870735;29;20112;-69
2021/08/22 11:54:22;;;;;;;4.15;2.67;;;18.20;65.00;;;;;;4873148;29;20396;-70
2021/08/22 11:56:49;;;;;;;4.32;2.50;;;18.20;64.80;;;;;;4870329;29;20081;-69
2021/08/22 11:59:29;;;;;;;3.55;2.42;;;18.20;64.80;;;;;;4875313;29;20096;-69
2021/08/22 12:02:13;;;;;;;10.35;7.03;;;18.30;64.60;;;;;;4872529;29;20078;-71
2021/08/22 12:04:40;;;;;;;17.02;12.57;;;18.30;64.70;;;;;;4876204;29;20096;-70
2021/08/22 12:07:07;;;;;;;5.68;2.92;;;18.30;64.70;;;;;;4873739;29;20097;-67
2021/08/22 12:09:35;;;;;;;7.53;3.30;;;18.40;64.20;;;;;;4853965;29;20045;-68
2021/08/22 12:12:02;;;;;;;7.05;2.80;;;18.40;64.00;;;;;;4867879;29;20025;-68
2021/08/22 12:14:38;;;;;;;4.70;2.92;;;18.40;64.00;;;;;;4870669;29;20025;-67
2021/08/22 12:17:11;;;;;;;3.75;1.98;;;18.40;64.10;;;;;;4873921;29;20104;-68
2021/08/22 12:19:44;;;;;;;8.13;5.10;;;18.50;63.90;;;;;;4870554;29;20116;-68
2021/08/22 12:22:13;;;;;;;7.43;4.32;;;18.50;63.80;;;;;;4872922;29;20033;-69
2021/08/22 12:24:50;;;;;;;6.82;3.10;;;18.50;63.80;;;;;;4873675;29;20105;-69
2021/08/22 12:27:29;;;;;;;9.20;3.15;;;18.60;63.60;;;;;;4877147;29;20031;-66
2021/08/22 12:30:13;;;;;;;4.85;2.67;;;18.60;63.50;;;;;;4871402;29;20045;-68
2021/08/22 12:32:42;;;;;;;6.65;2.00;;;18.60;63.40;;;;;;4860524;29;20461;-68
2021/08/22 12:35:12;;;;;;;6.20;2.05;;;18.60;63.40;;;;;;4873840;29;20124;-68
2021/08/22 12:37:42;;;;;;;5.13;1.98;;;18.60;63.60;;;;;;4871059;29;20489;-69
2021/08/22 12:40:11;;;;;;;4.40;1.52;;;18.60;63.50;;;;;;4875707;29;20021;-67
2021/08/22 12:42:43;;;;;;;6.20;2.88;;;18.70;63.70;;;;;;4870980;29;20028;-67
2021/08/22 12:45:14;;;;;;;4.65;1.70;;;18.70;63.60;;;;;;4870417;29;20033;-69
2021/08/22 12:47:41;;;;;;;4.55;2.08;;;18.70;63.30;;;;;;4875910;29;20052;-68
2021/08/22 12:50:11;;;;;;;4.07;1.40;;;18.70;63.00;;;;;;4874105;29;20081;-69
2021/08/22 12:52:37;;;;;;;2.75;1.65;;;18.70;63.10;;;;;;4873939;29;20033;-73
2021/08/22 12:55:06;;;;;;;6.22;1.50;;;18.70;63.30;;;;;;4874952;29;20018;-71
2021/08/22 12:57:32;;;;;;;2.97;1.02;;;18.70;63.40;;;;;;4875454;29;20028;-69
2021/08/22 12:59:59;;;;;;;1.60;1.13;;;18.70;63.60;;;;;;4875634;29;20027;-70
2021/08/22 13:02:25;;;;;;;1.90;1.45;;;18.70;63.60;;;;;;4872788;29;20049;-70
2021/08/22 13:04:52;;;;;;;6.35;1.48;;;18.80;63.70;;;;;;4874483;29;20564;-70
2021/08/22 13:07:18;;;;;;;3.70;1.20;;;18.70;63.60;;;;;;4872667;29;20026;-70
2021/08/22 13:09:45;;;;;;;4.15;1.38;;;18.70;63.80;;;;;;4878582;29;20041;-69
2021/08/22 13:12:11;;;;;;;3.28;1.50;;;18.80;63.80;;;;;;4871686;29;20061;-73
2021/08/22 13:14:38;;;;;;;2.38;1.00;;;18.80;63.80;;;;;;4871340;29;20040;-71
2021/08/22 13:17:04;;;;;;;4.90;1.52;;;18.80;63.80;;;;;;4874892;29;20025;-71
2021/08/22 13:19:30;;;;;;;4.35;1.20;;;18.80;63.90;;;;;;4873962;29;20429;-71
2021/08/22 13:21:57;;;;;;;1.52;1.15;;;18.80;64.10;;;;;;4875580;29;20032;-71
2021/08/22 13:24:23;;;;;;;1.60;1.10;;;18.80;64.20;;;;;;4867626;29;20507;-73
2021/08/22 13:26:50;;;;;;;3.55;1.02;;;18.80;64.50;;;;;;4873974;29;20027;-73
2021/08/22 13:29:17;;;;;;;2.92;1.83;;;18.80;64.40;;;;;;4870410;29;20052;-78
2021/08/22 13:31:45;;;;;;;2.20;1.13;;;18.80;64.20;;;;;;4862929;29;20029;-72
2021/08/22 13:34:11;;;;;;;6.32;1.10;;;18.80;64.40;;;;;;4859014;29;20112;-71
2021/08/22 13:36:38;;;;;;;2.13;1.17;;;18.80;64.40;;;;;;4873666;29;20063;-72
2021/08/22 13:39:04;;;;;;;2.42;1.42;;;18.80;64.40;;;;;;4873254;29;20052;-72
2021/08/22 13:41:33;;;;;;;6.40;1.42;;;18.70;64.40;;;;;;4870795;29;20032;-72
2021/08/22 13:43:59;;;;;;;2.92;0.85;;;18.70;64.30;;;;;;4874499;29;20068;-71
2021/08/22 13:46:25;;;;;;;3.42;0.82;;;18.80;64.40;;;;;;4881238;29;20025;-71
2021/08/22 13:48:52;;;;;;;2.05;0.95;;;18.70;64.20;;;;;;4877009;29;20049;-72
2021/08/22 13:51:20;;;;;;;5.47;0.82;;;18.70;64.10;;;;;;4876899;29;20446;-71
2021/08/22 13:54:26;;;;;;;3.95;0.88;;;18.70;64.10;;;;;;4877336;29;20499;-76
2021/08/22 13:57:32;;;;;;;3.20;1.00;;;18.70;64.30;;;;;;4878364;29;20025;-69
2021/08/22 14:00:38;;;;;;;45.17;36.38;;;18.70;63.70;;;;;;4869773;29;20504;-68
2021/08/22 14:03:06;;;;;;;41.63;34.40;;;18.70;63.80;;;;;;4875998;29;20053;-68
2021/08/22 14:05:35;;;;;;;40.25;29.45;;;18.70;64.10;;;;;;4876664;29;20045;-68
2021/08/22 14:08:03;;;;;;;31.02;24.38;;;18.70;64.40;;;;;;4880630;29;20029;-71
2021/08/22 14:10:30;;;;;;;33.10;23.90;;;18.60;64.20;;;;;;4876248;29;20047;-68
2021/08/22 14:12:56;;;;;;;20.35;16.85;;;18.60;64.40;;;;;;4874375;29;20063;-68
2021/08/22 14:15:24;;;;;;;18.75;12.60;;;18.70;64.50;;;;;;4871695;29;20025;-68
2021/08/22 14:17:55;;;;;;;11.50;8.35;;;18.60;64.40;;;;;;4876019;29;20033;-71
2021/08/22 14:20:23;;;;;;;11.02;8.13;;;18.60;64.60;;;;;;4870986;29;20036;-70
2021/08/22 14:22:52;;;;;;;10.00;6.82;;;18.60;64.20;;;;;;4877069;29;20447;-69
2021/08/22 14:25:19;;;;;;;6.63;4.88;;;18.50;63.70;;;;;;4876124;29;20056;-67
2021/08/22 14:27:45;;;;;;;8.88;4.50;;;18.50;63.80;;;;;;4875376;29;20017;-68
2021/08/22 14:30:12;;;;;;;7.88;3.78;;;18.50;64.20;;;;;;4862408;29;20084;-69
2021/08/22 14:32:39;;;;;;;4.18;3.25;;;18.50;64.50;;;;;;4875864;29;20052;-68
2021/08/22 14:35:06;;;;;;;6.07;2.30;;;18.40;64.60;;;;;;4878436;29;20133;-68
2021/08/22 14:37:32;;;;;;;4.25;2.40;;;18.40;64.90;;;;;;4872493;29;20018;-68
2021/08/22 14:39:59;;;;;;;8.23;4.35;;;18.40;65.30;;;;;;4880031;29;20033;-69
2021/08/22 14:42:25;;;;;;;7.80;6.25;;;18.30;65.50;;;;;;4877451;29;20435;-68
2021/08/22 14:44:52;;;;;;;28.95;15.25;;;18.30;66.00;;;;;;4877292;29;20060;-67
2021/08/22 14:47:18;;;;;;;18.55;10.43;;;18.30;66.40;;;;;;4869163;29;20021;-66
2021/08/22 14:49:45;;;;;;;14.55;6.88;;;18.20;66.50;;;;;;4872589;29;20055;-67
2021/08/22 14:52:11;;;;;;;9.57;5.00;;;18.20;66.50;;;;;;4868892;29;20036;-64
2021/08/22 14:54:38;;;;;;;7.53;3.55;;;18.20;66.60;;;;;;4873013;29;20032;-66
2021/08/22 14:57:07;;;;;;;7.90;3.50;;;18.10;66.70;;;;;;4871859;29;20037;-77
2021/08/22 14:59:34;;;;;;;6.10;3.38;;;18.10;66.70;;;;;;4873558;29;21525;-68
2021/08/22 15:02:04;;;;;;;7.03;3.55;;;18.10;66.80;;;;;;4872447;29;20049;-70
2021/08/22 15:04:31;;;;;;;6.32;3.72;;;18.10;67.10;;;;;;4869290;29;20040;-81
2021/08/22 15:06:59;;;;;;;7.00;3.22;;;18.00;67.10;;;;;;4874649;29;20198;-69
2021/08/22 15:09:42;;;;;;;16.33;8.98;;;18.00;67.30;;;;;;4871118;29;20128;-68
2021/08/22 15:12:09;;;;;;;7.43;3.55;;;17.90;67.60;;;;;;4865668;29;20017;-68
2021/08/22 15:14:41;;;;;;;6.22;2.85;;;17.90;67.80;;;;;;4874089;29;20037;-67
2021/08/22 15:17:07;;;;;;;7.28;2.05;;;17.90;67.90;;;;;;4872699;29;20602;-68
2021/08/22 15:19:34;;;;;;;7.45;3.03;;;17.80;68.00;;;;;;4877895;29;20044;-67
2021/08/22 15:22:03;;;;;;;3.35;1.63;;;17.80;68.20;;;;;;4876611;29;20059;-68
2021/08/22 15:24:30;;;;;;;4.97;2.20;;;17.80;68.50;;;;;;4875771;29;20036;-68
2021/08/22 15:26:59;;;;;;;4.65;2.50;;;17.80;68.60;;;;;;4874993;29;20035;-66
2021/08/22 15:29:27;;;;;;;4.18;2.38;;;17.70;68.70;;;;;;4873460;29;20041;-66
2021/08/22 15:31:55;;;;;;;6.90;4.40;;;17.70;68.80;;;;;;4872886;29;20089;-68
2021/08/22 15:34:23;;;;;;;5.38;3.20;;;17.60;68.90;;;;;;4871760;29;20149;-67
2021/08/22 15:36:54;;;;;;;8.25;2.83;;;17.60;69.00;;;;;;4871705;29;20036;-66
2021/08/22 15:39:21;;;;;;;5.57;2.13;;;17.60;69.00;;;;;;4876639;29;20023;-67
2021/08/22 15:41:48;;;;;;;7.05;2.03;;;17.60;69.10;;;;;;4868937;29;20029;-67
2021/08/22 15:44:16;;;;;;;4.88;1.48;;;17.60;69.10;;;;;;4871910;29;20048;-67
2021/08/22 15:46:43;;;;;;;3.53;1.20;;;17.50;69.10;;;;;;4868142;29;20037;-69
2021/08/22 15:49:10;;;;;;;2.63;1.58;;;17.50;69.10;;;;;;4873353;29;20037;-69
2021/08/22 15:51:36;;;;;;;4.05;1.55;;;17.50;69.20;;;;;;4859394;29;20034;-68
2021/08/22 15:54:09;;;;;;;4.28;1.30;;;17.50;69.40;;;;;;4870760;29;20299;-66
2021/08/22 15:56:38;;;;;;;4.43;1.13;;;17.50;69.50;;;;;;4871647;29;20653;-67
2021/08/22 15:59:05;;;;;;;6.05;2.00;;;17.40;69.60;;;;;;4869124;29;20131;-69
2021/08/22 16:01:34;;;;;;;6.65;5.22;;;17.40;69.70;;;;;;4874734;29;20100;-67
2021/08/22 16:04:01;;;;;;;8.25;4.40;;;17.40;70.00;;;;;;4876517;29;20028;-68
2021/08/22 16:06:28;;;;;;;3.38;2.33;;;17.40;70.30;;;;;;4876652;29;20374;-69
2021/08/22 16:08:55;;;;;;;6.57;2.65;;;17.30;70.50;;;;;;4873394;29;20408;-67
2021/08/22 16:11:22;;;;;;;3.95;1.27;;;17.30;70.80;;;;;;4877617;29;20576;-68
2021/08/22 16:13:51;;;;;;;6.22;1.70;;;17.20;70.90;;;;;;4861532;29;20056;-67
2021/08/22 16:16:19;;;;;;;5.75;1.85;;;17.20;71.20;;;;;;4878364;29;20032;-67
2021/08/22 16:18:48;;;;;;;5.50;1.30;;;17.20;71.50;;;;;;4875017;29;20100;-69
2021/08/22 16:21:18;;;;;;;5.32;1.35;;;17.10;71.50;;;;;;4877744;29;20527;-66
2021/08/22 16:23:47;;;;;;;6.53;1.77;;;17.10;71.80;;;;;;4872605;29;20454;-68
2021/08/22 16:26:13;;;;;;;8.57;1.85;;;17.10;72.00;;;;;;4855005;29;20599;-68
2021/08/22 16:28:40;;;;;;;4.72;1.60;;;17.10;72.10;;;;;;4878581;29;20043;-68
2021/08/22 16:31:07;;;;;;;7.18;1.80;;;17.10;72.30;;;;;;4878305;29;20085;-67
2021/08/22 16:33:34;;;;;;;6.50;1.65;;;17.10;72.40;;;;;;4875011;29;20065;-69
2021/08/22 16:36:00;;;;;;;5.22;2.08;;;17.00;72.40;;;;;;4879107;29;20412;-72
2021/08/22 16:38:27;;;;;;;4.43;1.25;;;17.00;73.00;;;;;;4871827;29;20040;-66
2021/08/22 16:40:53;;;;;;;5.90;1.17;;;17.00;72.40;;;;;;4872019;29;20032;-67
2021/08/22 16:43:20;;;;;;;5.13;3.10;;;17.00;72.10;;;;;;4869670;29;20022;-69
2021/08/22 16:45:47;;;;;;;4.40;2.03;;;16.90;71.90;;;;;;4876713;29;20497;-72
2021/08/22 16:48:14;;;;;;;8.50;3.72;;;16.90;70.80;;;;;;4874286;29;20055;-67
2021/08/22 16:50:41;;;;;;;8.35;3.63;;;16.90;70.40;;;;;;4875824;29;20417;-69
2021/08/22 16:53:08;;;;;;;7.93;2.55;;;16.90;70.10;;;;;;4870205;29;20029;-67
2021/08/22 16:55:36;;;;;;;6.75;2.50;;;16.90;70.00;;;;;;4850298;29;20465;-68
2021/08/22 16:58:04;;;;;;;7.20;2.15;;;16.80;69.90;;;;;;4868923;29;20090;-68
2021/08/22 17:00:34;;;;;;;6.30;3.25;;;16.80;70.00;;;;;;4871090;29;20037;-68
2021/08/22 17:03:05;;;;;;;4.57;2.08;;;16.80;70.20;;;;;;4871045;29;20049;-69
2021/08/22 17:05:32;;;;;;;3.80;1.60;;;16.70;70.20;;;;;;4864601;29;20024;-67
2021/08/22 17:07:59;;;;;;;5.18;2.35;;;16.70;70.20;;;;;;4874355;29;20028;-68
2021/08/22 17:10:28;;;;;;;5.50;2.42;;;16.70;70.30;;;;;;4868290;29;20079;-68
2021/08/22 17:12:55;;;;;;;5.10;1.83;;;16.70;70.40;;;;;;4865615;29;20068;-66
2021/08/22 17:15:23;;;;;;;9.63;3.47;;;16.70;70.70;;;;;;4876399;29;20029;-68
2021/08/22 17:17:49;;;;;;;14.82;7.43;;;16.70;70.80;;;;;;4873703;29;20392;-66
2021/08/22 17:20:19;;;;;;;16.67;11.45;;;16.60;70.90;;;;;;4871782;29;20354;-68
2021/08/22 17:22:45;;;;;;;15.15;10.48;;;16.60;71.00;;;;;;4856530;29;20517;-68
2021/08/22 17:25:12;;;;;;;19.52;9.43;;;16.60;71.20;;;;;;4872216;29;20029;-68
2021/08/22 17:27:38;;;;;;;8.43;6.90;;;16.60;71.30;;;;;;4877906;29;20030;-67
2021/08/22 17:30:05;;;;;;;7.85;5.38;;;16.50;71.40;;;;;;4878270;29;20045;-68
2021/08/22 17:32:32;;;;;;;8.43;5.60;;;16.50;71.50;;;;;;4871050;29;20396;-68
2021/08/22 17:34:58;;;;;;;12.40;5.22;;;16.50;71.50;;;;;;4873442;29;20040;-67
2021/08/22 17:37:45;;;;;;;8.13;4.40;;;16.40;71.50;;;;;;4876077;29;20033;-68
2021/08/22 17:40:19;;;;;;;7.00;4.30;;;16.40;71.60;;;;;;4874932;29;20041;-68
2021/08/22 17:42:48;;;;;;;6.97;3.65;;;16.40;71.50;;;;;;4874353;29;20041;-68
2021/08/22 17:45:45;;;;;;;4.82;3.42;;;16.40;71.50;;;;;;4870926;29;20116;-68
2021/08/22 17:48:15;;;;;;;6.07;3.42;;;16.40;71.60;;;;;;4866553;29;20036;-67
2021/08/22 17:50:46;;;;;;;4.28;3.10;;;16.40;71.60;;;;;;4875954;29;20117;-68
2021/08/22 17:53:24;;;;;;;5.53;2.90;;;16.40;71.60;;;;;;4870824;29;20498;-67
2021/08/22 17:55:55;;;;;;;8.18;2.85;;;16.30;71.50;;;;;;4873668;29;20385;-68
2021/08/22 17:58:23;;;;;;;7.88;2.95;;;16.30;71.60;;;;;;4875990;29;20470;-67
2021/08/22 18:00:49;;;;;;;5.03;2.83;;;16.30;71.60;;;;;;4875751;29;20518;-68
2021/08/22 18:03:22;;;;;;;7.47;3.67;;;16.30;71.60;;;;;;4869929;29;20405;-67
2021/08/22 18:05:54;;;;;;;5.43;2.88;;;16.30;71.60;;;;;;4876332;29;20028;-67
2021/08/22 18:08:23;;;;;;;5.20;2.42;;;16.20;71.50;;;;;;4870714;29;20088;-68
2021/08/22 18:10:52;;;;;;;4.20;2.92;;;16.20;71.50;;;;;;4853666;29;20045;-68
2021/08/22 18:13:24;;;;;;;7.07;2.33;;;16.20;71.50;;;;;;4870201;29;20116;-67
2021/08/22 18:16:12;;;;;;;3.50;1.55;;;16.20;71.50;;;;;;4853180;29;20097;-68
2021/08/22 18:18:49;;;;;;;4.03;1.45;;;16.10;71.40;;;;;;4872309;29;20446;-67
2021/08/22 18:21:18;;;;;;;7.18;1.55;;;16.10;71.40;;;;;;4867576;29;20373;-67
2021/08/22 18:23:58;;;;;;;6.07;1.40;;;16.10;71.40;;;;;;4870771;29;20072;-67
2021/08/22 18:26:28;;;;;;;5.03;1.70;;;16.10;71.30;;;;;;4869662;29;20040;-67
2021/08/22 18:28:56;;;;;;;2.78;1.42;;;16.10;71.30;;;;;;4874937;29;20123;-67
2021/08/22 18:31:47;;;;;;;5.22;1.73;;;16.00;71.30;;;;;;4869489;29;20057;-67
2021/08/22 18:34:25;;;;;;;5.90;2.65;;;16.00;71.40;;;;;;4867420;29;20119;-67
2021/08/22 18:36:59;;;;;;;13.40;8.77;;;16.00;71.30;;;;;;4868663;29;20037;-68
2021/08/22 18:39:34;;;;;;;25.00;17.33;;;16.00;71.40;;;;;;4872159;29;20033;-67
2021/08/22 18:42:03;;;;;;;20.02;14.70;;;15.90;71.30;;;;;;4869307;29;20025;-67
2021/08/22 18:44:32;;;;;;;16.42;11.02;;;16.00;71.30;;;;;;4870096;29;20021;-68
2021/08/22 18:47:04;;;;;;;13.38;9.50;;;15.90;71.40;;;;;;4873654;29;20029;-67
2021/08/22 18:49:34;;;;;;;10.23;6.40;;;15.90;71.40;;;;;;4869717;29;20053;-67
2021/08/22 18:52:00;;;;;;;8.68;4.80;;;15.90;71.40;;;;;;4874879;29;20035;-67
2021/08/22 18:54:33;;;;;;;6.32;4.13;;;15.90;71.40;;;;;;4868812;29;20047;-68
2021/08/22 18:57:29;;;;;;;6.97;2.80;;;15.90;71.40;;;;;;4869470;29;20017;-68
2021/08/22 19:00:06;;;;;;;3.58;2.85;;;15.90;71.40;;;;;;4870824;29;20045;-67
2021/08/22 19:02:37;;;;;;;4.32;1.80;;;15.80;71.20;;;;;;4867313;29;20056;-67
2021/08/22 19:05:04;;;;;;;5.18;1.85;;;15.80;71.20;;;;;;4870537;29;20040;-68
2021/08/22 19:07:33;;;;;;;3.55;1.70;;;15.80;71.00;;;;;;4870452;29;20068;-69
2021/08/22 19:10:03;;;;;;;3.58;1.50;;;15.80;70.80;;;;;;4867142;29;20033;-68
2021/08/22 19:12:30;;;;;;;3.03;1.50;;;15.70;70.60;;;;;;4873433;29;20029;-68
2021/08/22 19:15:04;;;;;;;5.15;3.10;;;15.70;70.40;;;;;;4869197;29;20104;-68
2021/08/22 19:17:35;;;;;;;3.90;1.83;;;15.70;70.40;;;;;;4871035;29;20051;-68
2021/08/22 19:20:06;;;;;;;5.07;1.38;;;15.70;70.30;;;;;;4869502;29;20029;-69
2021/08/22 19:22:37;;;;;;;2.78;1.85;;;15.60;70.20;;;;;;4868575;29;20052;-68
2021/08/22 19:25:07;;;;;;;4.28;1.60;;;15.70;70.20;;;;;;4873956;29;20022;-68
2021/08/22 19:27:34;;;;;;;2.97;1.65;;;15.60;70.10;;;;;;4869612;29;20034;-69
2021/08/22 19:30:07;;;;;;;3.42;1.90;;;15.60;70.10;;;;;;4856517;29;20041;-68
2021/08/22 19:32:35;;;;;;;6.40;1.92;;;15.60;70.00;;;;;;4870654;29;20025;-68
2021/08/22 19:35:02;;;;;;;2.75;1.58;;;15.60;70.00;;;;;;4873005;29;20343;-68
2021/08/22 19:37:29;;;;;;;3.72;1.85;;;15.50;70.00;;;;;;4868851;29;20032;-68
2021/08/22 19:39:59;;;;;;;3.33;1.58;;;15.50;69.90;;;;;;4874889;29;20032;-68
2021/08/22 19:42:29;;;;;;;5.80;1.88;;;15.50;69.90;;;;;;4873066;29;20856;-68
2021/08/22 19:44:59;;;;;;;4.45;1.92;;;15.50;69.80;;;;;;4872815;29;20058;-67
2021/08/22 19:47:26;;;;;;;2.00;1.70;;;15.50;69.80;;;;;;4855676;29;20117;-68
2021/08/22 19:49:53;;;;;;;2.53;1.40;;;15.50;69.80;;;;;;4870679;29;20395;-68
2021/08/22 19:52:26;;;;;;;3.00;1.45;;;15.50;69.80;;;;;;4871847;29;20029;-68
2021/08/22 19:54:54;;;;;;;3.63;1.95;;;15.40;69.70;;;;;;4870953;29;20017;-68
2021/08/22 19:57:24;;;;;;;5.07;2.08;;;15.40;69.70;;;;;;4853285;29;20033;-68
2021/08/22 19:59:50;;;;;;;4.35;1.23;;;15.40;69.70;;;;;;4877423;29;20021;-68
2021/08/22 20:02:19;;;;;;;2.95;1.65;;;15.40;69.70;;;;;;4869397;29;20049;-68
2021/08/22 20:04:46;;;;;;;2.63;1.35;;;15.40;69.70;;;;;;4873305;29;20125;-68
2021/08/22 20:07:17;;;;;;;2.60;2.08;;;15.40;69.60;;;;;;4846267;29;21087;-67
2021/08/22 20:09:44;;;;;;;3.95;2.17;;;15.40;69.50;;;;;;4871769;29;20048;-68
2021/08/22 20:12:14;;;;;;;4.20;2.20;;;15.40;69.50;;;;;;4869502;29;20112;-68
2021/08/22 20:14:42;;;;;;;5.78;2.95;;;15.30;69.40;;;;;;4873773;29;20116;-67
2021/08/22 20:17:13;;;;;;;6.07;3.35;;;15.30;69.40;;;;;;4864869;29;20134;-68
2021/08/22 20:19:42;;;;;;;7.95;4.35;;;15.30;69.40;;;;;;4868322;29;20519;-67
2021/08/22 20:22:10;;;;;;;12.43;6.05;;;15.20;69.40;;;;;;4873389;29;20032;-69
2021/08/22 20:24:40;;;;;;;9.32;5.38;;;15.20;69.30;;;;;;4870565;29;20032;-67
2021/08/22 20:27:11;;;;;;;9.65;4.95;;;15.20;69.50;;;;;;4852096;29;20040;-68
2021/08/22 20:29:39;;;;;;;8.52;4.55;;;15.10;69.60;;;;;;4870323;29;20141;-69
2021/08/22 20:32:07;;;;;;;8.98;5.10;;;15.10;69.60;;;;;;4869180;29;20522;-68
2021/08/22 20:34:49;;;;;;;6.25;4.95;;;15.10;69.70;;;;;;4871434;29;20087;-68
2021/08/22 20:37:19;;;;;;;10.15;5.38;;;15.00;69.70;;;;;;4867318;29;20477;-69
2021/08/22 20:39:47;;;;;;;10.43;5.45;;;15.00;69.70;;;;;;4861075;29;20052;-68
2021/08/22 20:42:15;;;;;;;8.43;6.03;;;15.00;69.90;;;;;;4868109;29;20021;-68
2021/08/22 20:44:41;;;;;;;12.13;7.07;;;15.00;69.90;;;;;;4873118;29;20309;-67
2021/08/22 20:47:11;;;;;;;9.45;6.50;;;15.00;70.00;;;;;;4872969;29;20052;-68
2021/08/22 20:49:37;;;;;;;8.15;6.10;;;15.00;69.90;;;;;;4865160;29;20123;-69
2021/08/22 20:52:04;;;;;;;11.90;6.75;;;14.90;69.90;;;;;;4869669;29;20036;-67
2021/08/22 20:54:39;;;;;;;16.23;8.63;;;14.90;70.00;;;;;;4868090;29;20057;-67
2021/08/22 20:57:07;;;;;;;19.42;12.20;;;14.90;70.00;;;;;;4871494;29;20116;-68
2021/08/22 20:59:34;;;;;;;23.55;12.77;;;14.90;70.20;;;;;;4867144;29;20029;-68
2021/08/22 21:02:05;;;;;;;14.90;9.15;;;14.90;70.20;;;;;;4867242;29;20568;-68
2021/08/22 21:04:33;;;;;;;12.82;9.00;;;14.80;70.20;;;;;;4868474;29;20131;-68
2021/08/22 21:07:00;;;;;;;11.50;7.78;;;14.80;70.30;;;;;;4866143;29;20021;-68
2021/08/22 21:09:27;;;;;;;15.10;7.82;;;14.80;70.30;;;;;;4870616;29;20046;-68
2021/08/22 21:11:54;;;;;;;11.10;5.97;;;14.80;70.40;;;;;;4872319;29;20069;-68
2021/08/22 21:14:21;;;;;;;8.05;5.05;;;14.80;70.30;;;;;;4868727;29;20033;-69
2021/08/22 21:16:48;;;;;;;11.65;5.85;;;14.80;70.30;;;;;;4867892;29;20036;-68
2021/08/22 21:19:16;;;;;;;10.75;5.15;;;14.80;70.30;;;;;;4872609;29;20048;-67
2021/08/22 21:21:45;;;;;;;7.63;4.47;;;14.70;70.20;;;;;;4851382;29;20037;-68
2021/08/22 21:24:12;;;;;;;11.52;5.40;;;14.70;70.10;;;;;;4870993;29;20032;-69
2021/08/22 21:26:38;;;;;;;8.32;4.65;;;14.70;70.10;;;;;;4870571;29;20112;-68
2021/08/22 21:29:05;;;;;;;8.27;4.38;;;14.70;70.10;;;;;;4869628;29;20045;-67
2021/08/22 21:31:31;;;;;;;7.95;5.10;;;14.70;70.10;;;;;;4870883;29;20078;-68
2021/08/22 21:33:59;;;;;;;6.25;3.97;;;14.70;70.20;;;;;;4872206;29;20040;-68
2021/08/22 21:36:26;;;;;;;9.48;5.00;;;14.70;70.30;;;;;;4870511;29;20040;-69
2021/08/22 21:38:52;;;;;;;7.50;4.85;;;14.60;70.20;;;;;;4870729;29;20111;-69
2021/08/22 21:41:19;;;;;;;9.50;5.07;;;14.60;70.20;;;;;;4868232;29;20492;-69
2021/08/22 21:43:45;;;;;;;7.10;4.78;;;14.60;70.20;;;;;;4868678;29;20108;-69
2021/08/22 21:46:12;;;;;;;5.15;3.95;;;14.60;70.20;;;;;;4869753;29;20031;-68
2021/08/22 21:48:38;;;;;;;8.55;5.75;;;14.60;70.20;;;;;;4870477;29;20022;-68
2021/08/22 21:51:05;;;;;;;9.10;6.30;;;14.60;70.20;;;;;;4867771;29;20128;-68
2021/08/22 21:53:31;;;;;;;16.65;10.45;;;14.60;70.20;;;;;;4871886;29;20502;-68
2021/08/22 21:56:01;;;;;;;17.45;10.75;;;14.60;70.20;;;;;;4872163;29;20153;-69
2021/08/22 21:58:27;;;;;;;18.08;13.45;;;14.50;70.20;;;;;;4866713;29;20037;-68
2021/08/22 22:00:55;;;;;;;20.10;12.82;;;14.50;70.20;;;;;;4871964;29;20443;-68
2021/08/22 22:03:22;;;;;;;18.73;9.68;;;14.50;70.30;;;;;;4876666;29;20463;-68
2021/08/22 22:05:48;;;;;;;15.18;7.72;;;14.50;70.20;;;;;;4874977;29;20029;-68